createdAt,value
2023-01-30T00:02:00.932Z,94813.50
2023-01-30T00:04:28.879Z,94809.22
2023-01-30T00:06:56.743Z,94804.78
2023-01-30T00:09:24.653Z,94774.78
2023-01-30T00:11:52.517Z,94790.66
2023-01-30T00:14:20.420Z,94798.88
2023-01-30T00:16:49.697Z,94796.50
2023-01-30T00:19:17.620Z,94795.69
2023-01-30T00:21:45.503Z,94806.06
2023-01-30T00:24:13.664Z,94782.94
2023-01-30T00:26:41.710Z,94794.84
2023-01-30T00:29:09.799Z,94791.50
2023-01-30T00:31:37.800Z,94789.41
2023-01-30T00:34:08.551Z,94790.88
2023-01-30T00:36:36.451Z,94790.75
2023-01-30T00:39:04.541Z,94788.69
2023-01-30T00:41:46.319Z,94782.28
2023-01-30T00:44:31.386Z,94780.56
2023-01-30T00:47:09.061Z,94780.31
2023-01-30T00:49:39.102Z,94774.94
2023-01-30T00:52:07.537Z,94763.56
2023-01-30T00:54:36.245Z,94767.97
2023-01-30T00:57:04.272Z,94769.50
2023-01-30T00:59:32.248Z,94773.41
2023-01-30T01:02:00.299Z,94773.50
2023-01-30T01:04:28.408Z,94779.41
2023-01-30T01:06:57.752Z,94769.50
2023-01-30T01:09:25.715Z,94781.16
2023-01-30T01:11:53.580Z,94777.88
2023-01-30T01:14:21.515Z,94737.41
2023-01-30T01:16:49.451Z,94775.41
2023-01-30T01:19:17.495Z,94765.22
2023-01-30T01:21:45.494Z,94751.13
2023-01-30T01:24:16.172Z,94747.75
2023-01-30T01:26:45.581Z,94754.22
2023-01-30T01:29:14.541Z,94741.38
2023-01-30T01:31:42.962Z,94748.22
2023-01-30T01:34:11.063Z,94737.56
2023-01-30T01:36:53.205Z,94742.13
2023-01-30T01:39:23.794Z,94738.81
2023-01-30T01:41:51.218Z,94746.56
2023-01-30T01:44:19.078Z,94745.38
2023-01-30T01:46:51.826Z,94746.81
2023-01-30T01:49:24.297Z,94745.91
2023-01-30T01:51:58.618Z,94755.28
2023-01-30T01:54:35.022Z,94752.91
2023-01-30T01:57:06.679Z,94738.03
2023-01-30T01:59:39.163Z,94749.34
2023-01-30T02:02:11.393Z,94751.63
2023-01-30T02:05:01.505Z,94750.72
2023-01-30T02:07:34.623Z,94747.91
2023-01-30T02:10:04.145Z,94742.63
2023-01-30T02:12:32.548Z,94737.50
2023-01-30T02:15:01.927Z,94740.91
2023-01-30T02:17:29.829Z,94736.38
2023-01-30T02:20:06.139Z,94747.22
2023-01-30T02:22:56.086Z,94749.75
2023-01-30T02:26:02.408Z,94738.81
2023-01-30T02:28:49.858Z,94727.94
2023-01-30T02:31:33.766Z,94729.38
2023-01-30T02:34:19.127Z,94752.84
2023-01-30T02:37:01.162Z,94736.47
2023-01-30T02:39:39.079Z,94748.22
2023-01-30T02:42:15.763Z,94729.81
2023-01-30T02:44:51.719Z,94736.75
2023-01-30T02:47:27.423Z,94736.53
2023-01-30T02:50:00.750Z,94739.63
2023-01-30T02:52:30.238Z,94728.28
2023-01-30T02:54:58.121Z,94731.09
2023-01-30T02:57:29.492Z,94736.72
2023-01-30T03:00:02.953Z,94735.66
2023-01-30T03:03:07.390Z,94740.84
2023-01-30T03:05:50.032Z,94717.94
2023-01-30T03:08:26.746Z,94735.00
2023-01-30T03:11:00.824Z,94735.53
2023-01-30T03:13:40.137Z,94718.72
2023-01-30T03:16:14.047Z,94721.91
2023-01-30T03:18:44.676Z,94726.09
2023-01-30T03:21:12.889Z,94710.44
2023-01-30T03:23:40.909Z,94723.28
2023-01-30T03:26:14.253Z,94711.44
2023-01-30T03:28:43.190Z,94712.84
2023-01-30T03:31:11.524Z,94706.22
2023-01-30T03:33:39.477Z,94711.38
2023-01-30T03:36:09.707Z,94727.75
2023-01-30T03:38:38.085Z,94706.19
2023-01-30T03:41:06.844Z,94703.50
2023-01-30T03:43:35.040Z,94693.38
2023-01-30T03:46:02.959Z,94692.84
2023-01-30T03:48:31.112Z,94699.09
2023-01-30T03:51:00.129Z,94700.56
2023-01-30T03:53:29.401Z,94692.66
2023-01-30T03:55:57.327Z,94698.09
2023-01-30T03:58:25.285Z,94697.72
2023-01-30T04:00:54.021Z,94693.38
2023-01-30T04:03:23.371Z,94694.84
2023-01-30T04:05:51.282Z,94691.38
2023-01-30T04:08:19.158Z,94688.91
2023-01-30T04:10:48.476Z,94697.94
2023-01-30T04:13:17.187Z,94690.22
2023-01-30T04:15:45.164Z,94685.03
2023-01-30T04:18:13.115Z,94689.56
2023-01-30T04:20:41.195Z,94689.75
2023-01-30T04:23:09.113Z,94687.28
2023-01-30T04:25:36.943Z,94688.00
2023-01-30T04:28:06.686Z,94684.66
2023-01-30T04:30:34.689Z,94676.47
2023-01-30T04:33:02.649Z,94687.56
2023-01-30T04:35:30.623Z,94692.38
2023-01-30T04:37:58.614Z,94668.75
2023-01-30T04:40:26.470Z,94686.38
2023-01-30T04:42:54.368Z,94681.75
2023-01-30T04:45:23.677Z,94685.19
2023-01-30T04:47:51.605Z,94679.19
2023-01-30T04:50:19.701Z,94672.75
2023-01-30T04:52:47.888Z,94675.22
2023-01-30T04:55:16.348Z,94664.13
2023-01-30T04:57:44.660Z,94655.56
2023-01-30T05:00:13.783Z,94662.84
2023-01-30T05:02:43.209Z,94646.59
2023-01-30T05:05:14.199Z,94664.47
2023-01-30T05:07:42.164Z,94664.84
2023-01-30T05:10:11.224Z,94665.13
2023-01-30T05:12:39.156Z,94656.56
2023-01-30T05:15:07.857Z,94657.03
2023-01-30T05:17:36.107Z,94656.47
2023-01-30T05:20:06.451Z,94658.03
2023-01-30T05:22:34.561Z,94662.22
2023-01-30T05:25:02.584Z,94661.09
2023-01-30T05:27:30.585Z,94661.94
2023-01-30T05:29:58.923Z,94664.59
2023-01-30T05:32:27.408Z,94670.00
2023-01-30T05:34:55.336Z,94664.47
2023-01-30T05:37:24.902Z,94669.38
2023-01-30T05:39:52.890Z,94666.19
2023-01-30T05:42:20.774Z,94670.00
2023-01-30T05:44:48.989Z,94671.38
2023-01-30T05:47:16.925Z,94667.31
2023-01-30T05:49:44.804Z,94669.13
2023-01-30T05:52:12.730Z,94675.94
2023-01-30T05:54:42.013Z,94673.56
2023-01-30T05:57:10.021Z,94669.84
2023-01-30T05:59:37.919Z,94680.94
2023-01-30T06:02:05.837Z,94682.66
2023-01-30T06:04:33.812Z,94681.03
2023-01-30T06:07:01.746Z,94686.47
2023-01-30T06:09:29.706Z,94675.38
2023-01-30T06:11:59.134Z,94674.69
2023-01-30T06:14:27.052Z,94677.66
2023-01-30T06:16:55.062Z,94675.03
2023-01-30T06:19:23.010Z,94678.13
2023-01-30T06:21:50.981Z,94665.47
2023-01-30T06:24:19.009Z,94663.91
2023-01-30T06:26:47.082Z,94659.13
2023-01-30T06:29:16.603Z,94670.84
2023-01-30T06:31:44.583Z,94652.03
2023-01-30T06:34:15.829Z,94664.03
2023-01-30T06:36:44.082Z,94657.84
2023-01-30T06:39:12.136Z,94669.94
2023-01-30T06:41:40.106Z,94663.09
2023-01-30T06:44:08.072Z,94661.47
2023-01-30T06:46:37.400Z,94666.66
2023-01-30T06:49:05.336Z,94670.31
2023-01-30T06:51:33.260Z,94671.56
2023-01-30T06:54:01.409Z,94663.03
2023-01-30T06:56:29.310Z,94673.41
2023-01-30T06:58:57.239Z,94673.22
2023-01-30T07:01:25.390Z,94678.59
2023-01-30T07:03:55.485Z,94678.28
2023-01-30T07:06:23.417Z,94677.13
2023-01-30T07:08:51.352Z,94671.00
2023-01-30T07:11:20.040Z,94689.75
2023-01-30T07:13:47.990Z,94683.88
2023-01-30T07:16:15.932Z,94689.94
2023-01-30T07:18:43.941Z,94693.56
2023-01-30T07:21:13.250Z,94690.13
2023-01-30T07:23:41.191Z,94688.38
2023-01-30T07:26:09.158Z,94699.38
2023-01-30T07:28:37.104Z,94693.66
2023-01-30T07:31:05.068Z,94692.66
2023-01-30T07:33:33.098Z,94679.59
2023-01-30T07:36:01.102Z,94694.41
2023-01-30T07:38:30.501Z,94707.38
2023-01-30T07:40:59.431Z,94705.47
2023-01-30T07:43:27.434Z,94710.41
2023-01-30T07:45:55.404Z,94705.91
2023-01-30T07:48:23.362Z,94686.13
2023-01-30T07:50:51.295Z,94704.84
2023-01-30T07:53:19.627Z,94702.56
2023-01-30T07:55:49.012Z,94686.19
2023-01-30T07:58:17.756Z,94693.72
2023-01-30T08:00:46.342Z,94684.38
2023-01-30T08:03:15.563Z,94691.22
2023-01-30T08:05:46.841Z,94673.34
2023-01-30T08:08:15.064Z,94686.81
2023-01-30T08:10:43.442Z,94686.06
2023-01-30T08:13:12.755Z,94683.81
2023-01-30T08:15:40.747Z,94682.09
2023-01-30T08:18:08.834Z,94682.41
2023-01-30T08:20:37.742Z,94682.34
2023-01-30T08:23:05.908Z,94679.84
2023-01-30T08:25:35.463Z,94669.88
2023-01-30T08:28:03.922Z,94669.06
2023-01-30T08:30:33.364Z,94678.69
2023-01-30T08:33:01.496Z,94664.84
2023-01-30T08:35:29.395Z,94646.69
2023-01-30T08:37:57.436Z,94661.97
2023-01-30T08:40:25.509Z,94656.44
2023-01-30T08:42:53.387Z,94667.00
2023-01-30T08:45:21.319Z,94670.28
2023-01-30T08:47:51.888Z,94667.00
2023-01-30T08:50:20.246Z,94653.94
2023-01-30T08:52:48.520Z,94660.19
2023-01-30T08:55:16.588Z,94659.47
2023-01-30T08:57:44.682Z,94657.34
2023-01-30T09:00:13.848Z,94647.78
2023-01-30T09:02:41.863Z,94649.03
2023-01-30T09:05:12.174Z,94634.97
2023-01-30T09:07:40.075Z,94633.25
2023-01-30T09:10:08.606Z,94641.53
2023-01-30T09:12:36.723Z,94638.16
2023-01-30T09:15:05.199Z,94640.91
2023-01-30T09:17:33.255Z,94640.47
2023-01-30T09:20:01.190Z,94646.97
2023-01-30T09:22:30.515Z,94634.53
2023-01-30T09:24:59.125Z,94636.44
2023-01-30T09:27:27.203Z,94635.09
2023-01-30T09:29:55.164Z,94629.19
2023-01-30T09:32:23.186Z,94637.78
2023-01-30T09:34:51.177Z,94634.84
2023-01-30T09:37:19.242Z,94626.63
2023-01-30T09:39:48.628Z,94626.81
2023-01-30T09:42:37.773Z,94628.94
2023-01-30T09:45:22.387Z,94621.53
2023-01-30T09:48:02.382Z,94625.38
2023-01-30T09:50:56.057Z,94623.91
2023-01-30T09:53:32.665Z,94610.84
2023-01-30T09:56:02.181Z,94617.34
2023-01-30T09:58:46.930Z,94605.59
2023-01-30T10:01:21.531Z,94585.16
2023-01-30T10:04:03.207Z,94591.00
2023-01-30T10:06:37.742Z,94595.00
2023-01-30T10:09:17.080Z,94595.53
2023-01-30T10:12:02.826Z,94579.16
2023-01-30T10:14:53.969Z,94577.44
2023-01-30T10:17:40.027Z,94576.81
2023-01-30T10:20:33.187Z,94576.06
2023-01-30T10:23:15.089Z,94556.78
2023-01-30T10:25:47.450Z,94560.25
2023-01-30T10:28:23.745Z,94564.44
2023-01-30T10:30:56.516Z,94571.41
2023-01-30T10:33:31.145Z,94550.50
2023-01-30T10:36:04.378Z,94542.41
2023-01-30T10:38:41.823Z,94536.63
2023-01-30T10:41:20.418Z,94530.00
2023-01-30T10:43:58.716Z,94525.09
2023-01-30T10:46:40.235Z,94527.25
2023-01-30T10:49:14.984Z,94524.16
2023-01-30T10:51:54.227Z,94512.69
2023-01-30T10:54:28.707Z,94502.31
2023-01-30T10:57:04.487Z,94498.47
2023-01-30T10:59:47.928Z,94494.91
2023-01-30T11:02:26.310Z,94480.50
2023-01-30T11:05:00.453Z,94477.78
2023-01-30T11:07:32.252Z,94466.34
2023-01-30T11:10:01.367Z,94460.22
2023-01-30T11:12:29.351Z,94455.03
2023-01-30T11:15:01.358Z,94461.34
2023-01-30T11:17:36.381Z,94454.22
2023-01-30T11:20:11.256Z,94463.91
2023-01-30T11:22:47.005Z,94458.41
2023-01-30T11:25:17.851Z,94439.63
2023-01-30T11:27:53.880Z,94448.22
2023-01-30T11:30:27.905Z,94431.09
2023-01-30T11:33:12.319Z,94412.94
2023-01-30T11:35:45.487Z,94423.00
2023-01-30T11:38:23.182Z,94419.44
2023-01-30T11:40:51.199Z,94414.75
2023-01-30T11:43:20.462Z,94414.72
2023-01-30T11:45:51.494Z,94404.22
2023-01-30T11:48:33.432Z,94392.25
2023-01-30T11:51:12.158Z,94386.88
2023-01-30T11:53:43.719Z,94384.25
2023-01-30T11:56:18.660Z,94371.44
2023-01-30T11:58:58.789Z,94373.38
2023-01-30T12:01:31.295Z,94370.16
2023-01-30T12:04:00.769Z,94356.25
2023-01-30T12:06:32.695Z,94356.88
2023-01-30T12:09:01.377Z,94356.44
2023-01-30T12:11:33.135Z,94350.53
2023-01-30T12:14:20.250Z,94338.16
2023-01-30T12:16:57.294Z,94334.88
2023-01-30T12:19:38.169Z,94331.63
2023-01-30T12:22:17.330Z,94332.53
2023-01-30T12:24:52.247Z,94320.06
2023-01-30T12:27:26.668Z,94319.44
2023-01-30T12:30:03.482Z,94323.28
2023-01-30T12:32:36.364Z,94300.38
2023-01-30T12:35:16.990Z,94312.75
2023-01-30T12:37:57.983Z,94310.91
2023-01-30T12:40:37.916Z,94307.47
2023-01-30T12:43:38.667Z,94303.75
2023-01-30T12:46:18.409Z,94304.34
2023-01-30T12:49:11.370Z,94300.97
2023-01-30T12:51:56.223Z,94297.25
2023-01-30T12:54:37.919Z,94294.91
2023-01-30T12:57:18.477Z,94282.38
2023-01-30T12:59:55.899Z,94280.84
2023-01-30T13:02:45.918Z,94284.31
2023-01-30T13:05:27.587Z,94266.56
2023-01-30T13:08:17.289Z,94280.28
2023-01-30T13:10:51.185Z,94283.06
2023-01-30T13:13:24.051Z,94273.22
2023-01-30T13:16:03.501Z,94282.75
2023-01-30T13:18:36.173Z,94277.53
2023-01-30T13:21:11.542Z,94258.78
2023-01-30T13:23:55.481Z,94277.72
2023-01-30T13:26:28.725Z,94276.00
2023-01-30T13:29:03.272Z,94269.44
2023-01-30T13:31:33.912Z,94264.25
2023-01-30T13:34:07.017Z,94229.63
2023-01-30T13:36:43.679Z,94253.81
2023-01-30T13:41:54.232Z,94226.34
2023-01-30T13:44:26.233Z,94235.56
2023-01-30T13:46:57.209Z,94239.16
2023-01-30T13:49:31.806Z,94239.53
2023-01-30T13:52:06.937Z,94230.41
2023-01-30T13:54:53.632Z,94223.28
2023-01-30T13:57:29.534Z,94247.84
2023-01-30T14:00:26.975Z,94231.66
2023-01-30T14:03:23.162Z,94235.28
2023-01-30T14:06:29.694Z,94235.00
2023-01-30T14:09:00.406Z,94231.81
2023-01-30T14:11:34.434Z,94226.53
2023-01-30T14:14:06.011Z,94239.66
2023-01-30T14:16:46.015Z,94237.72
2023-01-30T14:19:40.986Z,94235.28
2023-01-30T14:22:25.433Z,94236.91
2023-01-30T14:25:47.178Z,94246.72
2023-01-30T14:28:54.740Z,94243.91
2023-01-30T14:31:54.318Z,94250.66
2023-01-30T14:34:50.362Z,94246.19
2023-01-30T14:37:29.578Z,94249.56
2023-01-30T14:39:59.913Z,94246.25
2023-01-30T14:42:29.999Z,94237.66
2023-01-30T14:45:00.259Z,94242.63
2023-01-30T14:47:36.200Z,94221.13
2023-01-30T14:50:21.992Z,94221.66
2023-01-30T14:52:51.456Z,94197.53
2023-01-30T14:55:24.531Z,94213.47
2023-01-30T14:57:57.033Z,94217.00
2023-01-30T15:00:29.385Z,94206.34
2023-01-30T15:03:01.614Z,94202.25
2023-01-30T15:05:35.481Z,94208.53
2023-01-30T15:08:11.469Z,94203.25
2023-01-30T15:11:03.315Z,94219.63
2023-01-30T15:13:47.429Z,94190.94
2023-01-30T15:16:37.838Z,94211.78
2023-01-30T15:19:27.980Z,94216.63
2023-01-30T15:22:08.921Z,94202.63
2023-01-30T15:25:06.175Z,94193.78
2023-01-30T15:27:41.574Z,94210.59
2023-01-30T15:30:23.059Z,94212.53
2023-01-30T15:32:50.978Z,94213.31
2023-01-30T15:35:28.370Z,94214.00
2023-01-30T15:43:45.205Z,94212.66
2023-01-30T15:46:22.959Z,94206.47
2023-01-30T15:50:24.323Z,94196.84
2023-01-30T15:52:54.214Z,94195.97
2023-01-30T15:55:30.146Z,94190.09
2023-01-30T15:58:00.646Z,94205.13
2023-01-30T16:00:31.458Z,94186.72
2023-01-30T16:03:01.356Z,94201.19
2023-01-30T16:05:31.087Z,94198.97
2023-01-30T16:08:10.743Z,94194.38
2023-01-30T16:10:47.113Z,94203.88
2023-01-30T16:13:15.513Z,94188.22
2023-01-30T16:15:49.903Z,94174.38
2023-01-30T16:18:26.103Z,94172.94
2023-01-30T16:21:02.449Z,94188.41
2023-01-30T16:23:33.378Z,94182.34
2023-01-30T16:26:02.038Z,94178.75
2023-01-30T16:28:32.295Z,94203.00
2023-01-30T16:31:02.035Z,94190.28
2023-01-30T16:33:36.623Z,94179.06
2023-01-30T16:36:08.197Z,94182.13
2023-01-30T16:38:44.435Z,94177.28
2023-01-30T16:41:31.267Z,94190.72
2023-01-30T16:44:10.363Z,94169.13
2023-01-30T16:46:50.175Z,94175.84
2023-01-30T16:49:22.658Z,94163.53
2023-01-30T16:52:01.923Z,94167.88
2023-01-30T16:54:32.379Z,94185.09
2023-01-30T16:57:03.481Z,94194.25
2023-01-30T16:59:34.130Z,94176.44
2023-01-30T17:02:05.542Z,94181.22
2023-01-30T17:04:35.814Z,94176.28
2023-01-30T17:07:06.483Z,94184.41
2023-01-30T17:09:44.008Z,94183.28
2023-01-30T17:12:48.408Z,94192.22
2023-01-30T17:15:43.554Z,94210.88
2023-01-30T17:18:13.150Z,94185.44
2023-01-30T17:20:47.672Z,94191.56
2023-01-30T17:23:20.615Z,94194.59
2023-01-30T17:25:50.177Z,94203.03
2023-01-30T17:28:21.567Z,94183.50
2023-01-30T17:30:50.509Z,94179.03
2023-01-30T17:33:18.782Z,94184.41
2023-01-30T17:35:47.004Z,94183.41
2023-01-30T17:38:15.050Z,94190.53
2023-01-30T17:40:44.787Z,94191.56
2023-01-30T17:43:13.346Z,94183.19
2023-01-30T17:45:41.685Z,94175.47
2023-01-30T17:48:11.737Z,94161.03
2023-01-30T17:50:40.120Z,94163.44
2023-01-30T17:53:08.169Z,94171.69
2023-01-30T17:55:36.706Z,94167.22
2023-01-30T17:58:06.444Z,94170.84
2023-01-30T18:00:34.515Z,94151.44
2023-01-30T18:03:03.282Z,94146.84
2023-01-30T18:05:31.468Z,94148.97
2023-01-30T18:07:59.618Z,94158.28
2023-01-30T18:10:27.709Z,94157.47
2023-01-30T18:12:55.756Z,94158.56
2023-01-30T18:15:25.587Z,94166.47
2023-01-30T18:17:56.533Z,94162.03
2023-01-30T18:20:24.830Z,94164.06
2023-01-30T18:22:53.169Z,94162.31
2023-01-30T18:25:24.344Z,94159.06
2023-01-30T18:27:52.543Z,94162.53
2023-01-30T18:30:21.099Z,94170.78
2023-01-30T18:32:53.366Z,94164.34
2023-01-30T18:35:23.405Z,94172.72
2023-01-30T18:37:52.019Z,94169.69
2023-01-30T18:40:22.133Z,94162.19
2023-01-30T18:42:50.631Z,94153.81
2023-01-30T18:45:18.763Z,94169.06
2023-01-30T18:47:46.935Z,94168.16
2023-01-30T18:50:16.438Z,94176.06
2023-01-30T18:52:44.434Z,94163.78
2023-01-30T18:55:12.771Z,94171.81
2023-01-30T18:57:40.827Z,94158.16
2023-01-30T19:00:09.985Z,94171.09
2023-01-30T19:02:38.350Z,94167.75
2023-01-30T19:05:07.037Z,94175.75
2023-01-30T19:07:37.818Z,94175.53
2023-01-30T19:10:06.323Z,94158.16
2023-01-30T19:12:51.987Z,94186.44
2023-01-30T19:15:19.973Z,94176.06
2023-01-30T19:17:48.172Z,94181.06
2023-01-30T19:20:16.285Z,94178.69
2023-01-30T19:22:45.625Z,94168.22
2023-01-30T19:25:13.605Z,94182.56
2023-01-30T19:27:43.848Z,94174.06
2023-01-30T19:30:13.125Z,94161.13
2023-01-30T19:32:41.109Z,94160.00
2023-01-30T19:35:10.147Z,94154.13
2023-01-30T19:37:40.038Z,94152.25
2023-01-30T19:40:11.311Z,94143.75
2023-01-30T19:42:43.843Z,94142.44
2023-01-30T19:45:14.593Z,94146.16
2023-01-30T19:47:42.600Z,94150.81
2023-01-30T19:50:12.191Z,94147.00
2023-01-30T19:52:40.993Z,94137.38
2023-01-30T19:55:11.111Z,94133.91
2023-01-30T19:57:39.134Z,94143.75
2023-01-30T20:00:08.369Z,94132.03
2023-01-30T20:02:36.789Z,94127.38
2023-01-30T20:05:05.081Z,94133.75
2023-01-30T20:07:34.432Z,94129.53
2023-01-30T20:10:02.496Z,94134.78
2023-01-30T20:12:35.010Z,94112.97
2023-01-30T20:15:05.184Z,94126.34
2023-01-30T20:17:33.371Z,94118.25
2023-01-30T20:20:01.416Z,94110.28
2023-01-30T20:22:29.495Z,94108.09
2023-01-30T20:24:57.426Z,94096.56
2023-01-30T20:27:25.357Z,94100.72
2023-01-30T20:29:54.773Z,94088.75
2023-01-30T20:32:22.698Z,94115.75
2023-01-30T20:34:50.723Z,94107.78
2023-01-30T20:37:18.808Z,94105.22
2023-01-30T20:39:46.809Z,94102.31
2023-01-30T20:42:15.968Z,94094.47
2023-01-30T20:44:44.029Z,94095.31
2023-01-30T20:47:13.426Z,94104.84
2023-01-30T20:49:41.496Z,94107.22
2023-01-30T20:52:09.524Z,94107.69
2023-01-30T20:54:37.967Z,94105.47
2023-01-30T20:57:06.784Z,94116.94
2023-01-30T20:59:35.013Z,94107.53
2023-01-30T21:02:04.392Z,94108.06
2023-01-30T21:04:33.772Z,94126.47
2023-01-30T21:07:03.912Z,94105.78
2023-01-30T21:09:31.847Z,94096.19
2023-01-30T21:11:59.820Z,94118.81
2023-01-30T21:14:27.890Z,94119.13
2023-01-30T21:16:56.348Z,94100.22
2023-01-30T21:19:24.556Z,94095.91
2023-01-30T21:21:55.537Z,94099.91
2023-01-30T21:24:26.094Z,94104.88
2023-01-30T21:26:54.502Z,94101.13
2023-01-30T21:29:24.409Z,94104.13
2023-01-30T21:31:53.493Z,94093.88
2023-01-30T21:34:21.574Z,94094.34
2023-01-30T21:40:09.559Z,94088.19
2023-01-30T21:42:54.736Z,94098.78
2023-01-30T21:45:23.231Z,94099.84
2023-01-30T21:47:52.233Z,94084.78
2023-01-30T21:50:20.812Z,94090.91
2023-01-30T21:52:48.972Z,94088.00
2023-01-30T21:55:18.731Z,94082.59
2023-01-30T21:57:46.787Z,94094.88
2023-01-30T22:00:15.862Z,94107.28
2023-01-30T22:02:46.047Z,94112.28
2023-01-30T22:05:14.266Z,94101.94
2023-01-30T22:07:42.147Z,94115.16
2023-01-30T22:10:11.176Z,94120.50
2023-01-30T22:12:41.661Z,94123.53
2023-01-30T22:15:10.568Z,94125.97
2023-01-30T22:17:38.641Z,94118.91
2023-01-30T22:20:09.942Z,94118.78
2023-01-30T22:22:37.812Z,94107.88
2023-01-30T22:25:06.319Z,94110.06
2023-01-30T22:27:34.206Z,94097.78
2023-01-30T22:30:03.466Z,94104.06
2023-01-30T22:32:31.353Z,94102.09
2023-01-30T22:34:59.245Z,94100.81
2023-01-30T22:37:27.137Z,94107.88
2023-01-30T22:39:55.092Z,94098.03
2023-01-30T22:42:22.971Z,94108.22
2023-01-30T22:44:50.876Z,94121.56
2023-01-30T22:47:20.077Z,94108.81
2023-01-30T22:49:48.084Z,94105.81
2023-01-30T22:52:16.182Z,94107.44
2023-01-30T22:54:44.163Z,94100.81
2023-01-30T22:57:12.119Z,94108.34
2023-01-30T22:59:40.519Z,94104.06
2023-01-30T23:02:10.373Z,94102.19
2023-01-30T23:04:40.114Z,94103.91
2023-01-30T23:07:08.126Z,94104.50
2023-01-30T23:09:36.102Z,94095.22
2023-01-30T23:12:21.525Z,94096.84
2023-01-30T23:14:49.444Z,94088.06
2023-01-30T23:17:34.726Z,94094.06
2023-01-30T23:20:04.175Z,94095.19
2023-01-30T23:22:32.093Z,94098.47
2023-01-30T23:25:00.060Z,94097.88
2023-01-30T23:27:28.525Z,94092.66
2023-01-30T23:29:56.551Z,94099.41
2023-01-30T23:32:24.789Z,94095.56
2023-01-30T23:34:52.693Z,94085.22
2023-01-30T23:37:43.006Z,94081.50
2023-01-30T23:40:12.222Z,94068.97
2023-01-30T23:42:40.135Z,94065.53
2023-01-30T23:45:09.356Z,94065.28
2023-01-30T23:47:37.827Z,94058.91
2023-01-30T23:50:06.180Z,94060.47
2023-01-30T23:52:35.379Z,94061.16
2023-01-30T23:55:03.312Z,94054.75
2023-01-30T23:57:31.252Z,94059.19
2023-01-30T23:59:59.238Z,94067.31
